createdAt,value
2023-02-03T00:00:39.457Z,59.16
2023-02-03T00:03:08.090Z,59.16
2023-02-03T00:05:35.644Z,60.50
2023-02-03T00:08:05.252Z,62.29
2023-02-03T00:10:33.846Z,62.14
2023-02-03T00:13:00.777Z,62.83
2023-02-03T00:15:27.477Z,63.87
2023-02-03T00:17:54.137Z,64.84
2023-02-03T00:20:20.806Z,64.45
2023-02-03T00:22:47.537Z,64.56
2023-02-03T00:25:14.409Z,64.00
2023-02-03T00:27:42.035Z,64.02
2023-02-03T00:30:09.622Z,63.95
2023-02-03T00:32:37.248Z,63.30
2023-02-03T00:35:04.779Z,63.15
2023-02-03T00:37:34.453Z,63.12
2023-02-03T00:40:02.103Z,62.70
2023-02-03T00:42:29.636Z,63.33
2023-02-03T00:44:56.279Z,62.40
2023-02-03T00:47:22.951Z,61.92
2023-02-03T00:49:50.151Z,61.88
2023-02-03T00:52:16.868Z,62.16
2023-02-03T00:54:43.578Z,61.83
2023-02-03T00:57:10.242Z,62.74
2023-02-03T00:59:36.907Z,62.70
2023-02-03T01:02:03.611Z,62.67
2023-02-03T01:04:30.929Z,63.06
2023-02-03T01:06:57.948Z,62.91
2023-02-03T01:09:25.124Z,63.25
2023-02-03T01:11:52.755Z,63.11
2023-02-03T01:14:20.287Z,62.76
2023-02-03T01:16:46.973Z,62.60
2023-02-03T01:19:13.616Z,62.59
2023-02-03T01:21:40.259Z,62.24
2023-02-03T01:24:06.906Z,61.02
2023-02-03T01:26:33.623Z,61.42
2023-02-03T01:29:00.403Z,62.08
2023-02-03T01:31:28.844Z,61.70
2023-02-03T01:34:00.220Z,61.83
2023-02-03T01:36:43.402Z,61.54
2023-02-03T01:44:47.690Z,60.66
2023-02-03T01:47:20.288Z,60.38
2023-02-03T01:49:51.613Z,60.02
2023-02-03T01:52:18.496Z,59.69
2023-02-03T01:54:46.109Z,60.10
2023-02-03T01:57:16.715Z,59.89
2023-02-03T01:59:43.450Z,59.78
2023-02-03T02:02:10.133Z,59.40
2023-02-03T02:05:04.803Z,59.08
2023-02-03T02:07:32.288Z,58.92
2023-02-03T02:09:58.955Z,58.65
2023-02-03T02:12:25.613Z,58.75
2023-02-03T02:14:52.239Z,58.66
2023-02-03T02:17:48.957Z,58.29
2023-02-03T02:20:32.654Z,58.67
2023-02-03T02:23:46.868Z,58.87
2023-02-03T02:26:42.720Z,58.83
2023-02-03T02:29:27.153Z,59.00
2023-02-03T02:32:05.959Z,59.00
2023-02-03T02:35:00.402Z,58.86
2023-02-03T02:37:51.029Z,58.85
2023-02-03T02:40:37.927Z,59.10
2023-02-03T02:43:21.318Z,58.63
2023-02-03T02:45:52.882Z,58.69
2023-02-03T02:48:27.099Z,58.33
2023-02-03T02:50:55.299Z,58.53
2023-02-03T02:53:24.624Z,58.94
2023-02-03T02:55:51.789Z,58.87
2023-02-03T02:58:18.508Z,58.46
2023-02-03T03:00:45.155Z,58.22
2023-02-03T03:03:21.792Z,59.08
2023-02-03T03:06:30.753Z,58.47
2023-02-03T03:09:12.284Z,58.88
2023-02-03T03:11:45.516Z,57.89
2023-02-03T03:14:12.173Z,58.99
2023-02-03T03:16:39.262Z,58.90
2023-02-03T03:22:13.228Z,57.62
2023-02-03T03:24:50.980Z,57.91
2023-02-03T03:27:22.155Z,58.79
2023-02-03T03:29:51.495Z,58.70
2023-02-03T03:32:18.237Z,58.52
2023-02-03T03:34:44.896Z,58.67
2023-02-03T03:37:29.100Z,58.23
2023-02-03T03:39:57.623Z,58.11
2023-02-03T03:42:32.017Z,58.06
2023-02-03T03:45:18.554Z,58.49
2023-02-03T03:47:55.632Z,58.38
2023-02-03T03:50:26.007Z,58.76
2023-02-03T03:52:53.166Z,58.93
2023-02-03T03:55:19.846Z,58.99
2023-02-03T03:57:59.274Z,59.41
2023-02-03T04:00:26.764Z,59.72
2023-02-03T04:02:54.396Z,58.19
2023-02-03T04:05:22.374Z,59.35
2023-02-03T04:07:49.046Z,59.53
2023-02-03T04:10:38.359Z,60.63
2023-02-03T04:13:05.192Z,61.67
2023-02-03T04:15:31.887Z,62.46
2023-02-03T04:17:58.541Z,62.68
2023-02-03T04:20:29.472Z,62.86
2023-02-03T04:22:56.658Z,62.25
2023-02-03T04:25:29.707Z,62.76
2023-02-03T04:31:08.956Z,62.95
2023-02-03T04:33:49.911Z,63.03
2023-02-03T04:39:40.638Z,62.89
2023-02-03T04:47:41.526Z,62.22
2023-02-03T04:50:08.500Z,62.28
2023-02-03T04:52:35.183Z,62.57
2023-02-03T04:55:01.867Z,62.14
2023-02-03T04:57:28.495Z,61.70
2023-02-03T04:59:55.146Z,61.39
2023-02-03T05:02:22.439Z,62.29
2023-02-03T05:04:50.020Z,60.12
2023-02-03T05:07:17.001Z,59.91
2023-02-03T05:09:43.641Z,60.61
2023-02-03T05:12:10.323Z,60.64
2023-02-03T05:14:38.480Z,61.20
2023-02-03T05:17:05.158Z,61.93
2023-02-03T05:19:31.850Z,61.97
2023-02-03T05:22:02.350Z,61.97
2023-02-03T05:24:29.060Z,62.09
2023-02-03T05:26:55.826Z,62.37
2023-02-03T05:29:22.531Z,62.00
2023-02-03T05:31:50.204Z,61.46
2023-02-03T05:34:17.008Z,61.42
2023-02-03T05:36:43.646Z,60.90
2023-02-03T05:39:10.290Z,60.15
2023-02-03T05:41:36.964Z,60.00
2023-02-03T05:44:04.165Z,59.66
2023-02-03T05:46:30.806Z,59.48
2023-02-03T05:48:57.465Z,60.63
2023-02-03T05:51:24.125Z,59.87
2023-02-03T05:53:50.768Z,59.82
2023-02-03T05:56:17.568Z,59.59
2023-02-03T05:58:44.199Z,59.17
2023-02-03T06:01:10.832Z,59.30
2023-02-03T06:03:37.599Z,59.10
2023-02-03T06:06:04.247Z,58.75
2023-02-03T06:08:30.916Z,58.50
2023-02-03T06:10:58.689Z,57.99
2023-02-03T06:13:25.325Z,58.03
2023-02-03T06:15:51.947Z,57.83
2023-02-03T06:18:18.596Z,57.99
2023-02-03T06:20:45.662Z,58.70
2023-02-03T06:23:12.283Z,58.85
2023-02-03T06:25:39.009Z,59.48
2023-02-03T06:28:05.728Z,59.67
2023-02-03T06:30:32.448Z,59.82
2023-02-03T06:32:59.109Z,60.29
2023-02-03T06:35:25.762Z,61.06
2023-02-03T06:37:52.397Z,60.20
2023-02-03T06:40:19.028Z,60.59
2023-02-03T06:42:46.570Z,60.28
2023-02-03T06:45:13.331Z,61.07
2023-02-03T06:47:41.204Z,60.42
2023-02-03T06:50:08.407Z,61.53
2023-02-03T06:52:35.029Z,62.23
2023-02-03T06:55:01.687Z,61.92
2023-02-03T06:57:28.348Z,62.32
2023-02-03T06:59:55.022Z,62.46
2023-02-03T07:02:21.725Z,62.57
2023-02-03T07:04:48.391Z,62.06
2023-02-03T07:07:15.076Z,62.10
2023-02-03T07:09:42.196Z,61.50
2023-02-03T07:12:08.921Z,61.99
2023-02-03T07:14:35.559Z,62.23
2023-02-03T07:17:02.819Z,62.93
2023-02-03T07:19:29.470Z,62.66
2023-02-03T07:21:56.170Z,63.29
2023-02-03T07:24:22.818Z,64.62
2023-02-03T07:26:49.428Z,65.03
2023-02-03T07:29:16.091Z,64.77
2023-02-03T07:31:42.829Z,65.31
2023-02-03T07:34:09.536Z,65.12
2023-02-03T07:36:36.182Z,64.79
2023-02-03T07:39:02.928Z,63.83
2023-02-03T07:41:29.576Z,64.07
2023-02-03T07:43:56.216Z,63.97
2023-02-03T07:46:22.871Z,63.37
2023-02-03T07:48:49.905Z,62.39
2023-02-03T07:51:16.553Z,62.29
2023-02-03T07:53:43.213Z,62.35
2023-02-03T07:56:09.882Z,61.58
2023-02-03T07:58:36.516Z,60.90
2023-02-03T08:01:12.875Z,59.00
2023-02-03T08:03:40.049Z,55.03
2023-02-03T08:06:07.064Z,52.58
2023-02-03T08:08:33.681Z,48.81
2023-02-03T08:11:00.306Z,46.91
2023-02-03T08:13:26.937Z,44.29
2023-02-03T08:15:53.568Z,41.85
2023-02-03T08:18:20.182Z,38.26
2023-02-03T08:20:47.409Z,35.91
2023-02-03T08:23:14.059Z,34.09
2023-02-03T08:25:40.689Z,32.14
2023-02-03T08:28:07.595Z,30.99
2023-02-03T08:30:34.324Z,30.38
2023-02-03T08:33:00.999Z,30.00
2023-02-03T08:35:27.670Z,28.39
2023-02-03T08:37:54.326Z,27.43
2023-02-03T08:40:20.944Z,26.52
2023-02-03T08:42:47.596Z,25.18
2023-02-03T08:45:14.253Z,24.63
2023-02-03T08:47:40.952Z,24.38
2023-02-03T08:50:08.054Z,24.47
2023-02-03T08:52:34.721Z,23.72
2023-02-03T08:55:01.392Z,22.94
2023-02-03T08:57:28.041Z,22.59
2023-02-03T08:59:54.656Z,23.03
2023-02-03T09:02:21.338Z,23.41
2023-02-03T09:04:48.006Z,23.02
2023-02-03T09:07:14.698Z,23.77
2023-02-03T09:09:41.326Z,23.88
2023-02-03T09:12:08.095Z,23.69
2023-02-03T09:14:35.072Z,23.42
2023-02-03T09:17:02.088Z,22.85
2023-02-03T09:19:28.843Z,22.84
2023-02-03T09:21:55.491Z,22.42
2023-02-03T09:24:22.215Z,22.71
2023-02-03T09:26:48.888Z,22.66
2023-02-03T09:29:15.517Z,22.92
2023-02-03T09:31:42.183Z,23.20
2023-02-03T09:34:09.101Z,22.57
2023-02-03T09:36:35.825Z,22.24
2023-02-03T09:39:02.505Z,22.02
2023-02-03T09:41:54.163Z,21.93
2023-02-03T09:44:44.260Z,21.62
2023-02-03T09:47:20.139Z,21.20
2023-02-03T09:49:57.106Z,20.78
2023-02-03T09:52:26.060Z,20.42
2023-02-03T09:54:55.466Z,21.78
2023-02-03T09:57:24.105Z,22.72
2023-02-03T09:59:50.776Z,23.77
2023-02-03T10:02:40.013Z,25.80
2023-02-03T10:05:18.425Z,26.79
2023-02-03T10:08:20.111Z,28.72
2023-02-03T10:11:15.166Z,29.03
2023-02-03T10:14:03.367Z,30.60
2023-02-03T10:16:48.797Z,32.47
2023-02-03T10:19:24.486Z,34.81
2023-02-03T10:21:58.582Z,36.88
2023-02-03T10:24:42.320Z,37.20
2023-02-03T10:27:16.361Z,37.40
2023-02-03T10:29:43.064Z,38.50
2023-02-03T10:32:10.672Z,38.37
2023-02-03T10:34:37.403Z,39.33
2023-02-03T10:37:16.068Z,39.06
2023-02-03T10:39:49.774Z,40.22
2023-02-03T10:42:16.412Z,38.83
2023-02-03T10:44:48.111Z,39.80
2023-02-03T10:47:24.157Z,40.07
2023-02-03T10:49:51.211Z,39.37
2023-02-03T10:52:36.126Z,40.03
2023-02-03T10:55:07.110Z,41.32
2023-02-03T10:57:36.109Z,41.74
2023-02-03T11:00:23.356Z,41.71
2023-02-03T11:03:01.685Z,41.34
2023-02-03T11:05:28.381Z,40.55
2023-02-03T11:07:55.605Z,41.11
2023-02-03T11:10:29.085Z,40.50
2023-02-03T11:13:10.615Z,40.86
2023-02-03T11:15:37.260Z,41.98
2023-02-03T11:18:03.914Z,42.03
2023-02-03T11:20:30.877Z,42.10
2023-02-03T11:23:05.050Z,42.95
2023-02-03T11:25:32.525Z,43.82
2023-02-03T11:28:03.845Z,45.19
2023-02-03T11:30:30.952Z,45.37
2023-02-03T11:33:00.632Z,45.52
2023-02-03T11:35:28.150Z,43.64
2023-02-03T11:37:55.991Z,43.85
2023-02-03T11:40:29.606Z,44.32
2023-02-03T11:42:56.427Z,42.96
2023-02-03T11:45:39.707Z,43.68
2023-02-03T11:48:14.615Z,45.04
2023-02-03T11:50:53.622Z,42.83
2023-02-03T11:53:27.321Z,44.04
2023-02-03T11:56:09.074Z,42.79
2023-02-03T11:58:46.396Z,43.28
2023-02-03T12:01:25.542Z,41.87
2023-02-03T12:04:20.165Z,41.46
2023-02-03T12:07:01.759Z,41.31
2023-02-03T12:09:50.744Z,42.92
2023-02-03T12:12:41.509Z,40.76
2023-02-03T12:15:30.522Z,41.29
2023-02-03T12:18:07.137Z,41.72
2023-02-03T12:20:47.043Z,42.16
2023-02-03T12:23:25.419Z,41.94
2023-02-03T12:26:06.994Z,40.70
2023-02-03T12:29:04.674Z,42.99
2023-02-03T12:31:53.753Z,41.46
2023-02-03T12:34:31.801Z,40.89
2023-02-03T12:37:06.767Z,42.84
2023-02-03T12:39:46.922Z,42.97
2023-02-03T12:42:45.177Z,42.68
2023-02-03T12:45:14.167Z,42.05
2023-02-03T12:47:43.559Z,43.39
2023-02-03T12:50:17.159Z,42.75
2023-02-03T12:52:52.869Z,43.22
2023-02-03T12:55:28.397Z,45.41
2023-02-03T12:57:58.299Z,43.82
2023-02-03T13:00:37.520Z,43.10
2023-02-03T13:03:29.019Z,42.43
2023-02-03T13:06:04.573Z,42.92
2023-02-03T13:08:39.280Z,43.22
2023-02-03T13:11:15.521Z,42.84
2023-02-03T13:14:11.676Z,42.65
2023-02-03T13:16:40.732Z,41.94
2023-02-03T13:19:11.406Z,43.07
2023-02-03T13:21:38.106Z,43.47
2023-02-03T13:24:04.952Z,45.33
2023-02-03T13:26:50.192Z,45.37
2023-02-03T13:29:38.355Z,45.58
2023-02-03T13:32:14.230Z,46.42
2023-02-03T13:34:52.178Z,45.43
2023-02-03T13:37:37.284Z,44.51
2023-02-03T13:40:34.754Z,43.22
2023-02-03T13:43:03.549Z,44.32
2023-02-03T13:45:32.656Z,44.19
2023-02-03T13:48:08.144Z,43.11
2023-02-03T13:50:34.793Z,42.30
2023-02-03T13:53:06.541Z,43.59
2023-02-03T13:55:39.591Z,42.79
2023-02-03T13:58:08.051Z,43.09
2023-02-03T14:00:43.800Z,42.24
2023-02-03T14:03:26.086Z,41.50
2023-02-03T14:05:53.200Z,43.28
2023-02-03T14:08:25.558Z,42.85
2023-02-03T14:11:29.619Z,43.17
2023-02-03T14:14:08.263Z,43.75
2023-02-03T14:16:55.202Z,43.72
2023-02-03T14:19:21.982Z,42.07
2023-02-03T14:21:53.004Z,41.13
2023-02-03T14:24:19.628Z,42.32
2023-02-03T14:26:47.939Z,41.38
2023-02-03T14:29:34.798Z,41.99
2023-02-03T14:32:11.774Z,42.17
2023-02-03T14:34:45.289Z,42.81
2023-02-03T14:37:12.820Z,42.49
2023-02-03T14:39:56.530Z,43.45
2023-02-03T14:42:53.880Z,43.12
2023-02-03T14:45:47.359Z,43.83
2023-02-03T14:48:50.138Z,43.14
2023-02-03T14:51:19.600Z,44.49
2023-02-03T14:53:46.107Z,44.30
2023-02-03T14:56:31.297Z,45.22
2023-02-03T14:59:02.812Z,46.79
2023-02-03T15:01:35.529Z,47.60
2023-02-03T15:04:20.685Z,47.47
2023-02-03T15:06:49.018Z,47.35
2023-02-03T15:09:26.289Z,47.34
2023-02-03T15:11:52.937Z,46.97
2023-02-03T15:14:26.743Z,47.99
2023-02-03T15:17:10.593Z,45.19
2023-02-03T15:19:40.787Z,43.01
2023-02-03T15:22:24.639Z,44.16
2023-02-03T15:24:52.192Z,44.91
2023-02-03T15:27:27.099Z,44.62
2023-02-03T15:29:53.972Z,45.20
2023-02-03T15:32:29.002Z,44.18
2023-02-03T15:34:55.756Z,44.89
2023-02-03T15:37:47.715Z,45.39
2023-02-03T15:40:19.072Z,45.13
2023-02-03T15:42:54.578Z,45.20
2023-02-03T15:45:34.724Z,45.85
2023-02-03T15:48:17.367Z,46.01
2023-02-03T15:50:59.939Z,48.18
2023-02-03T15:53:45.294Z,48.53
2023-02-03T15:56:19.423Z,46.92
2023-02-03T15:58:46.067Z,47.04
2023-02-03T16:01:13.642Z,47.40
2023-02-03T16:03:44.185Z,47.94
2023-02-03T16:06:33.664Z,47.10
2023-02-03T16:09:00.335Z,47.28
2023-02-03T16:11:35.820Z,47.80
2023-02-03T16:14:05.659Z,47.70
2023-02-03T16:16:38.194Z,47.94
2023-02-03T16:19:06.724Z,48.66
2023-02-03T16:21:35.053Z,48.79
2023-02-03T16:24:02.832Z,49.13
2023-02-03T16:26:30.817Z,48.51
2023-02-03T16:29:09.571Z,48.52
2023-02-03T16:31:36.358Z,49.26
2023-02-03T16:34:15.588Z,49.24
2023-02-03T16:36:43.241Z,48.78
2023-02-03T16:39:11.471Z,49.39
2023-02-03T16:41:38.166Z,49.59
2023-02-03T16:44:04.871Z,48.90
2023-02-03T16:46:31.515Z,49.18
2023-02-03T16:48:58.181Z,49.27
2023-02-03T16:51:24.919Z,50.29
2023-02-03T16:53:51.631Z,53.46
2023-02-03T16:56:18.584Z,55.33
2023-02-03T16:58:45.219Z,55.65
2023-02-03T17:01:11.910Z,56.90
2023-02-03T17:03:38.687Z,57.06
2023-02-03T17:06:09.212Z,56.16
2023-02-03T17:08:35.896Z,56.71
2023-02-03T17:11:07.358Z,56.71
2023-02-03T17:13:34.061Z,57.42
2023-02-03T17:16:00.888Z,57.93
2023-02-03T17:18:27.628Z,57.54
2023-02-03T17:20:54.267Z,57.45
2023-02-03T17:23:20.936Z,57.78
2023-02-03T17:25:48.512Z,58.31
2023-02-03T17:28:15.236Z,58.16
2023-02-03T17:30:42.105Z,58.83
2023-02-03T17:33:08.946Z,58.31
2023-02-03T17:35:35.623Z,58.06
2023-02-03T17:38:02.265Z,57.75
2023-02-03T17:54:11.780Z,57.39
2023-02-03T17:56:38.458Z,57.17
2023-02-03T17:59:05.322Z,56.62
2023-02-03T18:01:32.073Z,56.44
2023-02-03T18:03:59.889Z,56.53
2023-02-03T18:06:27.583Z,56.58
2023-02-03T18:08:54.488Z,56.68
2023-02-03T18:11:21.744Z,56.58
2023-02-03T18:13:48.815Z,56.26
2023-02-03T18:16:20.555Z,56.45
2023-02-03T18:18:47.280Z,57.25
2023-02-03T18:21:15.070Z,57.46
2023-02-03T18:23:42.151Z,57.41
2023-02-03T18:26:10.044Z,56.55
2023-02-03T18:28:36.805Z,56.25
2023-02-03T18:31:05.191Z,56.36
2023-02-03T18:33:32.064Z,57.06
2023-02-03T18:35:58.897Z,56.85
2023-02-03T18:38:30.155Z,56.93
2023-02-03T18:40:56.928Z,57.37
2023-02-03T18:43:23.572Z,57.15
2023-02-03T18:45:50.242Z,57.29
2023-02-03T18:48:16.965Z,57.06
2023-02-03T18:50:43.801Z,56.83
2023-02-03T18:53:10.696Z,56.79
2023-02-03T18:55:41.624Z,57.35
2023-02-03T18:58:08.339Z,57.17
2023-02-03T19:00:35.025Z,57.25
2023-02-03T19:03:01.715Z,57.47
2023-02-03T19:05:28.373Z,57.23
2023-02-03T19:07:55.062Z,57.25
2023-02-03T19:10:21.708Z,57.27
2023-02-03T19:12:48.340Z,56.94
2023-02-03T19:15:15.122Z,57.01
2023-02-03T19:17:41.763Z,57.83
2023-02-03T19:20:09.029Z,58.05
2023-02-03T19:22:35.688Z,58.18
2023-02-03T19:25:02.450Z,57.87
2023-02-03T19:27:29.101Z,57.42
2023-02-03T19:29:56.729Z,57.20
2023-02-03T19:32:23.459Z,57.19
2023-02-03T19:34:50.110Z,57.67
2023-02-03T19:37:16.801Z,58.67
2023-02-03T19:39:43.436Z,58.97
2023-02-03T19:42:10.114Z,58.84
2023-02-03T19:44:36.801Z,58.54
2023-02-03T19:47:03.746Z,59.22
2023-02-03T19:49:30.582Z,58.52
2023-02-03T19:51:57.291Z,58.84
2023-02-03T19:54:24.390Z,58.43
2023-02-03T19:56:54.292Z,56.96
2023-02-03T19:59:20.957Z,56.55
2023-02-03T20:01:47.878Z,56.34
2023-02-03T20:04:14.575Z,56.32
2023-02-03T20:06:41.251Z,55.71
2023-02-03T20:09:07.919Z,55.83
2023-02-03T20:11:34.537Z,55.81
2023-02-03T20:14:01.154Z,55.85
2023-02-03T20:16:27.844Z,55.53
2023-02-03T20:18:54.552Z,55.46
2023-02-03T20:21:21.187Z,55.80
2023-02-03T20:23:47.813Z,55.72
2023-02-03T20:26:14.494Z,55.83
2023-02-03T20:28:41.156Z,55.67
2023-02-03T20:31:08.027Z,55.32
2023-02-03T20:33:34.750Z,55.58
2023-02-03T20:36:01.381Z,55.59
2023-02-03T20:38:28.051Z,55.51
2023-02-03T20:40:54.733Z,55.92
2023-02-03T20:43:23.384Z,55.62
2023-02-03T20:45:50.104Z,55.89
2023-02-03T20:48:17.352Z,55.45
2023-02-03T20:50:44.467Z,55.71
2023-02-03T20:53:21.120Z,55.67
2023-02-03T20:55:48.085Z,55.73
2023-02-03T20:58:21.650Z,55.86
2023-02-03T21:00:48.331Z,56.13
2023-02-03T21:03:15.485Z,56.51
2023-02-03T21:05:43.085Z,56.08
2023-02-03T21:08:14.458Z,55.88
2023-02-03T21:10:41.077Z,56.06
2023-02-03T21:13:23.100Z,55.90
2023-02-03T21:15:50.840Z,56.43
2023-02-03T21:18:52.611Z,56.33
2023-02-03T21:21:45.214Z,56.02
2023-02-03T21:24:27.719Z,55.51
2023-02-03T21:26:54.416Z,56.06
2023-02-03T21:29:23.744Z,56.23
2023-02-03T21:31:50.441Z,56.26
2023-02-03T21:34:32.894Z,56.08
2023-02-03T21:37:07.799Z,55.87
2023-02-03T21:39:34.506Z,55.63
2023-02-03T21:42:23.467Z,56.22
2023-02-03T21:44:50.101Z,55.67
2023-02-03T21:47:18.084Z,56.08
2023-02-03T21:49:44.733Z,56.00
2023-02-03T21:52:14.505Z,56.15
2023-02-03T21:54:41.590Z,55.71
2023-02-03T21:57:12.767Z,55.63
2023-02-03T21:59:39.910Z,56.79
2023-02-03T22:02:40.300Z,57.75
2023-02-03T22:05:15.284Z,58.35
2023-02-03T22:07:42.025Z,57.73
2023-02-03T22:10:09.044Z,56.87
2023-02-03T22:12:35.721Z,57.09
2023-02-03T22:15:02.349Z,57.54
2023-02-03T22:17:29.008Z,57.12
2023-02-03T22:19:55.734Z,57.15
2023-02-03T22:22:22.362Z,56.89
2023-02-03T22:24:49.139Z,56.65
2023-02-03T22:27:15.767Z,56.16
2023-02-03T22:29:42.484Z,56.35
2023-02-03T22:32:09.132Z,57.03
2023-02-03T22:34:35.796Z,56.95
2023-02-03T22:37:02.439Z,57.24
2023-02-03T22:39:29.274Z,57.59
2023-02-03T22:41:55.900Z,58.01
2023-02-03T22:44:22.534Z,59.18
2023-02-03T22:46:49.208Z,58.87
2023-02-03T22:49:17.851Z,59.21
2023-02-03T22:51:45.437Z,59.90
2023-02-03T22:54:13.036Z,59.37
2023-02-03T22:56:40.870Z,59.67
2023-02-03T22:59:07.528Z,60.14
2023-02-03T23:01:34.811Z,59.46
2023-02-03T23:04:02.424Z,58.85
2023-02-03T23:06:31.015Z,58.61
2023-02-03T23:08:58.832Z,59.39
2023-02-03T23:11:26.221Z,59.09
2023-02-03T23:13:53.840Z,59.46
2023-02-03T23:16:21.417Z,59.38
2023-02-03T23:18:48.160Z,58.93
2023-02-03T23:21:14.829Z,58.01
2023-02-03T23:23:43.196Z,57.37
2023-02-03T23:26:10.780Z,57.10
2023-02-03T23:28:38.386Z,57.54
2023-02-03T23:31:06.122Z,56.72
2023-02-03T23:33:33.580Z,57.51
2023-02-03T23:36:01.170Z,58.21
2023-02-03T23:38:28.626Z,58.53
2023-02-03T23:40:56.363Z,58.60
2023-02-03T23:43:23.023Z,58.90
2023-02-03T23:45:49.776Z,58.26
2023-02-03T23:48:18.147Z,58.15
2023-02-03T23:50:45.736Z,58.12
2023-02-03T23:53:13.342Z,57.47
2023-02-03T23:55:40.929Z,57.54
2023-02-03T23:58:09.508Z,56.37
